createdAt,value
2022-08-12T00:00:43.221Z,4.10
2022-08-12T00:02:03.172Z,4.10
2022-08-12T00:02:44.243Z,3.80
2022-08-12T00:03:44.193Z,4.60
2022-08-12T00:04:43.184Z,4.40
2022-08-12T00:06:01.735Z,4.10
2022-08-12T00:06:44.164Z,4.20
2022-08-12T00:07:43.186Z,4.20
2022-08-12T00:08:43.152Z,3.90
2022-08-12T00:09:43.144Z,4.20
2022-08-12T00:10:43.139Z,4.00
2022-08-12T00:11:43.138Z,4.90
2022-08-12T00:12:43.152Z,3.90
2022-08-12T00:13:43.117Z,3.70
2022-08-12T00:14:43.109Z,4.30
2022-08-12T00:15:43.102Z,3.50
2022-08-12T00:16:43.095Z,4.80
2022-08-12T00:17:43.117Z,3.80
2022-08-12T00:18:43.079Z,4.30
2022-08-12T00:19:43.069Z,4.30
2022-08-12T00:20:43.060Z,4.10
2022-08-12T00:21:43.057Z,4.30
2022-08-12T00:22:43.074Z,4.80
2022-08-12T00:23:43.043Z,4.40
2022-08-12T00:24:43.028Z,4.10
2022-08-12T00:25:43.027Z,4.40
2022-08-12T00:26:44.020Z,4.60
2022-08-12T00:27:43.672Z,4.40
2022-08-12T00:28:43.003Z,4.50
2022-08-12T00:29:47.322Z,4.60
2022-08-12T00:30:44.985Z,4.60
2022-08-12T00:31:42.979Z,4.90
2022-08-12T00:32:44.392Z,4.90
2022-08-12T00:33:52.290Z,5.30
2022-08-12T00:34:43.949Z,5.30
2022-08-12T00:35:42.944Z,4.90
2022-08-12T00:36:42.942Z,5.10
2022-08-12T00:37:42.957Z,4.50
2022-08-12T00:38:42.920Z,4.60
2022-08-12T00:39:42.985Z,4.70
2022-08-12T00:40:42.908Z,5.10
2022-08-12T00:41:42.901Z,4.70
2022-08-12T00:42:43.136Z,4.60
2022-08-12T00:43:42.878Z,4.50
2022-08-12T00:44:43.879Z,4.50
2022-08-12T00:45:42.868Z,4.30
2022-08-12T00:46:42.854Z,4.30
2022-08-12T00:47:42.882Z,4.70
2022-08-12T00:48:42.842Z,4.60
2022-08-12T00:49:42.845Z,4.70
2022-08-12T00:50:43.825Z,4.50
2022-08-12T00:51:42.827Z,5.20
2022-08-12T00:52:42.837Z,4.70
2022-08-12T00:53:42.807Z,4.40
2022-08-12T00:54:42.792Z,4.70
2022-08-12T00:55:42.792Z,4.90
2022-08-12T00:56:42.783Z,5.10
2022-08-12T00:57:42.798Z,4.60
2022-08-12T00:58:42.765Z,4.60
2022-08-12T00:59:42.758Z,4.40
2022-08-12T01:00:42.749Z,4.50
2022-08-12T01:02:10.609Z,5.20
2022-08-12T01:02:43.758Z,4.40
2022-08-12T01:03:42.735Z,5.00
2022-08-12T01:04:42.720Z,4.90
2022-08-12T01:05:42.717Z,4.70
2022-08-12T01:06:42.711Z,5.20
2022-08-12T01:07:42.719Z,5.00
2022-08-12T01:08:42.691Z,5.10
2022-08-12T01:09:42.680Z,5.00
2022-08-12T01:10:42.670Z,4.70
2022-08-12T01:11:42.664Z,4.70
2022-08-12T01:12:42.685Z,4.60
2022-08-12T01:13:42.646Z,5.00
2022-08-12T01:14:42.642Z,5.00
2022-08-12T01:15:42.635Z,4.60
2022-08-12T01:16:42.621Z,4.70
2022-08-12T01:17:42.763Z,5.00
2022-08-12T01:18:42.610Z,4.90
2022-08-12T01:19:42.603Z,4.70
2022-08-12T01:20:42.594Z,4.50
2022-08-12T01:21:42.598Z,4.90
2022-08-12T01:22:42.617Z,4.60
2022-08-12T01:23:42.583Z,5.20
2022-08-12T01:24:42.574Z,5.50
2022-08-12T01:25:55.633Z,5.20
2022-08-12T01:26:43.552Z,4.40
2022-08-12T01:27:42.584Z,4.80
2022-08-12T01:28:42.539Z,4.80
2022-08-12T01:29:42.530Z,4.80
2022-08-12T01:30:42.524Z,4.60
2022-08-12T01:31:42.520Z,4.60
2022-08-12T01:32:42.536Z,5.10
2022-08-12T01:33:42.510Z,5.10
2022-08-12T01:34:42.497Z,5.20
2022-08-12T01:35:42.485Z,4.70
2022-08-12T01:36:42.477Z,5.30
2022-08-12T01:37:42.471Z,5.10
2022-08-12T01:38:42.532Z,4.50
2022-08-12T01:40:34.807Z,5.10
2022-08-12T01:40:46.857Z,5.20
2022-08-12T01:41:43.443Z,5.00
2022-08-12T01:42:43.436Z,5.00
2022-08-12T01:43:42.458Z,5.00
2022-08-12T01:44:42.413Z,4.90
2022-08-12T01:45:43.376Z,4.90
2022-08-12T01:46:42.406Z,5.00
2022-08-12T01:47:42.387Z,5.50
2022-08-12T01:48:42.408Z,5.40
2022-08-12T01:49:42.378Z,5.60
2022-08-12T01:50:43.100Z,5.40
2022-08-12T01:52:15.638Z,4.80
2022-08-12T01:52:43.346Z,4.70
2022-08-12T01:53:50.238Z,5.10
2022-08-12T01:54:43.340Z,5.60
2022-08-12T01:55:42.337Z,5.90
2022-08-12T01:56:42.324Z,5.30
2022-08-12T01:57:59.437Z,5.00
2022-08-12T01:58:43.330Z,5.30
2022-08-12T01:59:42.301Z,5.40
2022-08-12T02:00:43.483Z,5.50
2022-08-12T02:01:42.359Z,5.60
2022-08-12T02:02:42.300Z,5.40
2022-08-12T02:03:42.291Z,5.30
2022-08-12T02:04:42.261Z,5.50
2022-08-12T02:05:42.253Z,5.50
2022-08-12T02:06:42.252Z,5.40
2022-08-12T02:07:42.232Z,5.50
2022-08-12T02:08:42.252Z,5.20
2022-08-12T02:09:42.220Z,5.10
2022-08-12T02:10:49.913Z,5.00
2022-08-12T02:11:43.212Z,5.40
2022-08-12T02:12:42.529Z,5.80
2022-08-12T02:13:49.677Z,5.70
2022-08-12T02:14:43.179Z,5.30
2022-08-12T02:15:42.174Z,5.50
2022-08-12T02:16:42.167Z,5.60
2022-08-12T02:17:55.929Z,5.40
2022-08-12T02:18:43.170Z,5.20
2022-08-12T02:19:42.141Z,5.50
2022-08-12T02:20:51.268Z,5.50
2022-08-12T02:21:43.121Z,5.80
2022-08-12T02:22:42.284Z,5.60
2022-08-12T02:23:42.143Z,5.80
2022-08-12T02:24:42.101Z,5.60
2022-08-12T02:25:42.091Z,4.90
2022-08-12T02:26:42.090Z,5.40
2022-08-12T02:27:42.087Z,5.30
2022-08-12T02:28:42.100Z,5.30
2022-08-12T02:29:42.068Z,5.20
2022-08-12T02:30:42.617Z,5.30
2022-08-12T02:31:42.051Z,5.50
2022-08-12T02:32:42.040Z,5.30
2022-08-12T02:33:42.062Z,5.60
2022-08-12T02:34:42.025Z,5.20
2022-08-12T02:35:42.020Z,6.10
2022-08-12T02:36:42.016Z,5.40
2022-08-12T02:37:41.999Z,5.50
2022-08-12T02:38:42.022Z,5.60
2022-08-12T02:39:42.021Z,5.40
2022-08-12T02:40:41.983Z,5.90
2022-08-12T02:41:41.969Z,5.70
2022-08-12T02:42:41.959Z,5.50
2022-08-12T02:43:41.985Z,5.10
2022-08-12T02:44:41.948Z,5.30
2022-08-12T02:45:41.938Z,5.30
2022-08-12T02:46:41.937Z,5.20
2022-08-12T02:47:59.230Z,5.70
2022-08-12T02:48:42.960Z,5.60
2022-08-12T02:49:41.910Z,5.30
2022-08-12T02:50:41.905Z,6.00
2022-08-12T02:51:41.887Z,5.70
2022-08-12T02:52:42.020Z,5.90
2022-08-12T02:53:41.896Z,6.30
2022-08-12T02:54:41.874Z,6.10
2022-08-12T02:55:41.864Z,6.20
2022-08-12T02:56:41.853Z,6.30
2022-08-12T02:57:42.844Z,5.70
2022-08-12T02:58:45.432Z,5.90
2022-08-12T02:59:41.824Z,6.00
2022-08-12T03:00:41.885Z,6.20
2022-08-12T03:01:47.753Z,6.10
2022-08-12T03:02:42.796Z,5.70
2022-08-12T03:03:42.823Z,5.90
2022-08-12T03:04:44.053Z,5.70
2022-08-12T03:05:44.330Z,6.10
2022-08-12T03:06:41.778Z,6.10
2022-08-12T03:07:59.509Z,6.00
2022-08-12T03:08:42.791Z,6.20
2022-08-12T03:10:03.782Z,6.10
2022-08-12T03:10:42.739Z,5.90
2022-08-12T03:11:42.966Z,5.90
2022-08-12T03:12:49.840Z,5.90
2022-08-12T03:13:42.737Z,6.10
2022-08-12T03:14:41.736Z,5.90
2022-08-12T03:15:41.705Z,6.00
2022-08-12T03:16:41.697Z,5.40
2022-08-12T03:17:41.690Z,6.00
2022-08-12T03:18:44.443Z,6.10
2022-08-12T03:20:10.433Z,6.00
2022-08-12T03:20:42.662Z,6.00
2022-08-12T03:22:05.865Z,6.20
2022-08-12T03:22:42.807Z,6.20
2022-08-12T03:23:41.638Z,6.20
2022-08-12T03:24:41.653Z,5.90
2022-08-12T03:25:41.622Z,5.50
2022-08-12T03:26:41.624Z,5.90
2022-08-12T03:27:41.610Z,5.50
2022-08-12T03:28:41.602Z,5.80
2022-08-12T03:29:49.980Z,6.00
2022-08-12T03:30:42.587Z,5.60
2022-08-12T03:31:41.583Z,5.80
2022-08-12T03:32:41.569Z,5.40
2022-08-12T03:33:42.562Z,5.90
2022-08-12T03:34:41.580Z,6.10
2022-08-12T03:35:42.545Z,6.30
2022-08-12T03:36:41.541Z,5.90
2022-08-12T03:37:41.527Z,5.90
2022-08-12T03:38:41.557Z,5.50
2022-08-12T03:39:41.575Z,5.60
2022-08-12T03:40:41.507Z,5.90
2022-08-12T03:41:41.504Z,5.80
2022-08-12T03:42:41.770Z,6.00
2022-08-12T03:43:41.507Z,6.00
2022-08-12T03:44:41.477Z,5.80
2022-08-12T03:45:51.666Z,6.40
2022-08-12T03:46:42.469Z,6.70
2022-08-12T03:47:41.457Z,6.10
2022-08-12T03:48:41.476Z,6.40
2022-08-12T03:49:41.433Z,6.40
2022-08-12T03:50:41.432Z,6.20
2022-08-12T03:51:41.428Z,5.90
2022-08-12T03:52:41.622Z,5.80
2022-08-12T03:53:41.436Z,6.10
2022-08-12T03:54:42.669Z,6.10
2022-08-12T03:55:42.391Z,5.80
2022-08-12T03:56:41.386Z,7.20
2022-08-12T03:57:41.380Z,6.40
2022-08-12T03:58:41.371Z,6.60
2022-08-12T03:59:41.390Z,7.00
2022-08-12T04:00:41.391Z,7.70
2022-08-12T04:01:41.388Z,7.30
2022-08-12T04:02:41.548Z,8.10
2022-08-12T04:03:41.359Z,7.40
2022-08-12T04:04:41.324Z,6.90
2022-08-12T04:05:55.280Z,6.90
2022-08-12T04:06:42.308Z,6.90
2022-08-12T04:07:57.744Z,6.90
2022-08-12T04:08:42.303Z,6.90
2022-08-12T04:09:42.278Z,6.90
2022-08-12T04:10:41.272Z,6.60
2022-08-12T04:11:45.653Z,6.50
2022-08-12T04:12:42.319Z,6.60
2022-08-12T04:13:41.279Z,6.10
2022-08-12T04:14:41.237Z,6.00
2022-08-12T04:15:41.238Z,6.00
2022-08-12T04:16:41.219Z,6.10
2022-08-12T04:18:06.678Z,6.10
2022-08-12T04:18:42.232Z,6.10
2022-08-12T04:19:41.208Z,6.40
2022-08-12T04:20:41.196Z,6.30
2022-08-12T04:22:01.246Z,6.00
2022-08-12T04:22:42.179Z,6.50
2022-08-12T04:23:43.915Z,6.20
2022-08-12T04:24:42.167Z,5.90
2022-08-12T04:25:41.157Z,6.00
2022-08-12T04:26:41.144Z,5.30
2022-08-12T04:27:41.142Z,5.10
2022-08-12T04:28:41.165Z,4.90
2022-08-12T04:30:16.685Z,4.80
2022-08-12T04:30:42.117Z,5.10
2022-08-12T04:31:41.118Z,4.70
2022-08-12T04:32:44.459Z,5.10
2022-08-12T04:33:42.123Z,4.70
2022-08-12T04:34:41.081Z,4.50
2022-08-12T04:35:41.079Z,4.40
2022-08-12T04:36:41.064Z,4.70
2022-08-12T04:37:59.295Z,4.80
2022-08-12T04:38:42.078Z,4.10
2022-08-12T04:39:41.118Z,4.10
2022-08-12T04:40:41.024Z,3.90
2022-08-12T04:41:57.699Z,4.10
2022-08-12T04:42:42.081Z,4.10
2022-08-12T04:44:00.772Z,4.10
2022-08-12T04:44:42.007Z,3.70
2022-08-12T04:45:40.997Z,4.50
2022-08-12T04:46:40.996Z,4.20
2022-08-12T04:47:40.983Z,4.00
2022-08-12T04:48:41.004Z,3.80
2022-08-12T04:49:40.985Z,3.90
2022-08-12T04:50:40.956Z,3.50
2022-08-12T04:51:40.948Z,3.60
2022-08-12T04:52:41.057Z,3.70
2022-08-12T04:53:40.959Z,3.70
2022-08-12T04:54:40.927Z,4.00
2022-08-12T04:55:40.921Z,3.20
2022-08-12T04:56:40.918Z,3.70
2022-08-12T04:57:40.901Z,3.70
2022-08-12T04:58:40.895Z,3.80
2022-08-12T04:59:48.372Z,3.30
2022-08-12T05:00:41.883Z,4.10
2022-08-12T05:01:40.871Z,3.90
2022-08-12T05:02:41.122Z,4.30
2022-08-12T05:03:46.112Z,3.70
2022-08-12T05:04:41.869Z,4.00
2022-08-12T05:05:40.845Z,3.60
2022-08-12T05:06:40.841Z,3.70
2022-08-12T05:07:53.679Z,3.90
2022-08-12T05:08:41.821Z,3.40
2022-08-12T05:10:02.016Z,3.60
2022-08-12T05:10:41.810Z,3.90
2022-08-12T05:11:53.739Z,3.60
2022-08-12T05:12:42.005Z,3.90
2022-08-12T05:13:40.784Z,4.00
2022-08-12T05:14:40.807Z,3.80
2022-08-12T05:16:02.458Z,4.10
2022-08-12T05:16:42.760Z,3.90
2022-08-12T05:17:40.756Z,4.20
2022-08-12T05:18:40.745Z,3.90
2022-08-12T05:19:41.764Z,4.60
2022-08-12T05:20:40.739Z,4.00
2022-08-12T05:21:40.733Z,4.50
2022-08-12T05:22:40.888Z,4.00
2022-08-12T05:23:40.714Z,3.70
2022-08-12T05:24:40.732Z,3.90
2022-08-12T05:25:40.702Z,3.40
2022-08-12T05:26:40.727Z,3.70
2022-08-12T05:27:40.687Z,3.70
2022-08-12T05:28:41.678Z,3.30
2022-08-12T05:30:05.255Z,3.30
2022-08-12T05:30:41.661Z,3.40
2022-08-12T05:31:47.638Z,4.10
2022-08-12T05:32:41.929Z,3.90
2022-08-12T05:33:40.646Z,3.90
2022-08-12T05:34:40.661Z,3.80
2022-08-12T05:35:40.637Z,3.80
2022-08-12T05:36:40.625Z,3.60
2022-08-12T05:37:40.612Z,3.40
2022-08-12T05:38:40.609Z,3.40
2022-08-12T05:39:40.657Z,3.30
2022-08-12T05:40:40.597Z,3.50
2022-08-12T05:41:40.589Z,3.00
2022-08-12T05:42:40.585Z,3.20
2022-08-12T05:43:40.580Z,3.60
2022-08-12T05:44:40.591Z,3.70
2022-08-12T05:45:44.721Z,3.70
2022-08-12T05:46:41.560Z,3.30
2022-08-12T05:47:53.008Z,3.60
2022-08-12T05:48:41.547Z,3.60
2022-08-12T05:49:40.562Z,3.80
2022-08-12T05:50:40.531Z,3.70
2022-08-12T05:51:41.808Z,4.20
2022-08-12T05:52:40.644Z,3.30
2022-08-12T05:53:40.508Z,3.60
2022-08-12T05:54:56.675Z,3.80
2022-08-12T05:55:42.497Z,3.50
2022-08-12T05:56:40.488Z,3.80
2022-08-12T05:57:40.479Z,3.70
2022-08-12T05:58:40.476Z,3.80
2022-08-12T05:59:40.500Z,3.30
2022-08-12T06:00:40.465Z,3.40
2022-08-12T06:02:09.645Z,3.70
2022-08-12T06:02:41.609Z,3.70
2022-08-12T06:03:40.439Z,3.70
2022-08-12T06:04:40.458Z,3.90
2022-08-12T06:05:43.198Z,3.60
2022-08-12T06:06:41.420Z,3.90
2022-08-12T06:08:01.906Z,3.50
2022-08-12T06:08:41.406Z,3.90
2022-08-12T06:09:40.434Z,3.80
2022-08-12T06:10:40.398Z,4.20
2022-08-12T06:11:40.390Z,4.00
2022-08-12T06:12:41.645Z,3.90
2022-08-12T06:13:54.061Z,3.90
2022-08-12T06:14:41.396Z,3.90
2022-08-12T06:15:40.369Z,3.60
2022-08-12T06:16:40.360Z,3.60
2022-08-12T06:17:40.357Z,4.00
2022-08-12T06:18:40.351Z,3.70
2022-08-12T06:20:25.895Z,3.80
2022-08-12T06:20:41.518Z,3.90
2022-08-12T06:21:40.333Z,3.70
2022-08-12T06:22:40.411Z,3.80
2022-08-12T06:23:42.612Z,3.40
2022-08-12T06:24:41.332Z,3.60
2022-08-12T06:25:40.314Z,3.80
2022-08-12T06:26:40.305Z,3.60
2022-08-12T06:27:40.299Z,3.80
2022-08-12T06:28:41.287Z,3.70
2022-08-12T06:30:10.254Z,3.60
2022-08-12T06:30:41.285Z,3.70
2022-08-12T06:31:40.268Z,3.50
2022-08-12T06:32:51.802Z,3.70
2022-08-12T06:33:59.668Z,3.40
2022-08-12T06:35:24.388Z,3.40
2022-08-12T06:35:48.592Z,3.50
2022-08-12T06:36:41.244Z,3.30
2022-08-12T06:37:40.256Z,3.40
2022-08-12T06:38:40.233Z,3.50
2022-08-12T06:39:40.291Z,3.50
2022-08-12T06:40:40.215Z,3.10
2022-08-12T06:41:40.211Z,3.50
2022-08-12T06:42:41.213Z,3.70
2022-08-12T06:44:04.585Z,3.30
2022-08-12T06:44:41.220Z,3.60
2022-08-12T06:45:45.922Z,3.50
2022-08-12T06:46:41.181Z,3.30
2022-08-12T06:47:40.179Z,3.30
2022-08-12T06:48:40.183Z,3.50
2022-08-12T06:49:40.194Z,3.50
2022-08-12T06:50:40.480Z,3.60
2022-08-12T06:51:41.154Z,3.30
2022-08-12T06:52:41.337Z,3.70
2022-08-12T06:53:40.143Z,3.20
2022-08-12T06:54:40.170Z,3.70
2022-08-12T06:55:58.293Z,3.70
2022-08-12T06:57:03.118Z,3.90
2022-08-12T06:58:06.551Z,3.60
2022-08-12T06:58:41.117Z,4.00
2022-08-12T06:59:40.114Z,4.00
2022-08-12T07:00:40.163Z,3.70
2022-08-12T07:01:40.106Z,3.70
2022-08-12T07:02:40.361Z,3.60
2022-08-12T07:03:40.096Z,3.40
2022-08-12T07:04:40.213Z,3.20
2022-08-12T07:05:40.104Z,3.50
2022-08-12T07:06:40.078Z,3.50
2022-08-12T07:07:40.071Z,3.50
2022-08-12T07:08:40.064Z,3.30
2022-08-12T07:10:04.375Z,3.20
2022-08-12T07:10:41.073Z,3.70
2022-08-12T07:11:40.044Z,3.80
2022-08-12T07:12:40.214Z,3.60
2022-08-12T07:14:12.410Z,3.80
2022-08-12T07:14:42.903Z,3.60
2022-08-12T07:15:41.052Z,3.60
2022-08-12T07:16:40.017Z,3.80
2022-08-12T07:17:40.009Z,3.70
2022-08-12T07:18:40.006Z,3.70
2022-08-12T07:19:45.019Z,3.30
2022-08-12T07:20:52.155Z,3.70
2022-08-12T07:21:55.779Z,4.10
2022-08-12T07:22:41.100Z,3.50
2022-08-12T07:23:39.984Z,3.60
2022-08-12T07:24:39.976Z,3.60
2022-08-12T07:25:41.582Z,3.70
2022-08-12T07:26:39.967Z,3.50
2022-08-12T07:27:39.964Z,3.00
2022-08-12T07:28:39.959Z,2.90
2022-08-12T07:30:02.748Z,3.10
2022-08-12T07:30:40.974Z,3.10
2022-08-12T07:31:39.943Z,2.90
2022-08-12T07:32:39.984Z,3.30
2022-08-12T07:33:39.935Z,2.90
2022-08-12T07:34:39.928Z,3.30
2022-08-12T07:35:39.947Z,3.10
2022-08-12T07:36:39.922Z,3.20
2022-08-12T07:37:39.910Z,3.00
2022-08-12T07:38:39.902Z,2.90
2022-08-12T07:39:51.062Z,2.50
2022-08-12T07:40:40.917Z,2.90
2022-08-12T07:41:39.893Z,2.50
2022-08-12T07:42:40.120Z,2.80
2022-08-12T07:43:39.877Z,2.80
2022-08-12T07:44:39.878Z,2.50
2022-08-12T07:45:39.892Z,2.30
2022-08-12T07:46:39.860Z,2.70
2022-08-12T07:47:39.857Z,2.80
2022-08-12T07:48:39.852Z,2.80
2022-08-12T07:50:04.962Z,2.60
2022-08-12T07:50:40.862Z,2.40
2022-08-12T07:51:39.844Z,2.70
2022-08-12T07:52:39.976Z,2.40
2022-08-12T07:53:48.606Z,2.20
2022-08-12T07:54:40.816Z,2.40
2022-08-12T07:55:39.837Z,2.40
2022-08-12T07:56:39.812Z,2.50
2022-08-12T07:57:39.804Z,2.60
2022-08-12T07:58:41.980Z,2.50
2022-08-12T07:59:40.795Z,2.30
2022-08-12T08:00:39.821Z,2.30
2022-08-12T08:01:39.840Z,2.20
2022-08-12T08:02:39.924Z,2.30
2022-08-12T08:03:47.607Z,2.30
2022-08-12T08:04:40.762Z,2.20
2022-08-12T08:05:39.795Z,2.60
2022-08-12T08:06:39.753Z,2.20
2022-08-12T08:07:39.746Z,2.60
2022-08-12T08:08:39.744Z,2.20
2022-08-12T08:09:39.735Z,2.50
2022-08-12T08:10:39.731Z,2.20
2022-08-12T08:11:39.756Z,1.90
2022-08-12T08:12:39.910Z,2.40
2022-08-12T08:13:39.713Z,2.00
2022-08-12T08:14:39.707Z,1.90
2022-08-12T08:16:01.947Z,2.20
2022-08-12T08:16:41.719Z,1.80
2022-08-12T08:17:39.684Z,2.20
2022-08-12T08:18:39.681Z,2.20
2022-08-12T08:20:03.104Z,2.00
2022-08-12T08:20:40.675Z,2.20
2022-08-12T08:21:39.693Z,2.10
2022-08-12T08:22:42.090Z,2.00
2022-08-12T08:23:39.650Z,2.20
2022-08-12T08:24:39.645Z,2.20
2022-08-12T08:25:39.642Z,2.10
2022-08-12T08:26:39.675Z,2.10
2022-08-12T08:27:39.639Z,2.10
2022-08-12T08:28:39.625Z,1.80
2022-08-12T08:29:39.621Z,2.00
2022-08-12T08:30:39.619Z,2.20
2022-08-12T08:31:40.616Z,2.00
2022-08-12T08:32:40.815Z,2.20
2022-08-12T08:34:04.961Z,2.10
2022-08-12T08:34:53.656Z,2.00
2022-08-12T08:35:47.147Z,2.00
2022-08-12T08:36:40.604Z,1.90
2022-08-12T08:37:39.575Z,2.00
2022-08-12T08:38:39.572Z,2.10
2022-08-12T08:39:39.629Z,2.00
2022-08-12T08:40:39.555Z,1.90
2022-08-12T08:42:15.752Z,2.10
2022-08-12T08:42:40.804Z,1.90
2022-08-12T08:43:44.533Z,1.70
2022-08-12T08:44:40.531Z,2.00
2022-08-12T08:45:39.524Z,1.70
2022-08-12T08:46:39.562Z,1.70
2022-08-12T08:47:39.514Z,2.00
2022-08-12T08:48:39.506Z,2.00
2022-08-12T08:49:39.510Z,1.80
2022-08-12T08:50:39.494Z,1.70
2022-08-12T08:51:39.512Z,1.80
2022-08-12T08:52:40.986Z,1.70
2022-08-12T08:53:39.478Z,1.80
2022-08-12T08:54:39.470Z,2.00
2022-08-12T08:56:03.697Z,1.70
2022-08-12T08:56:41.486Z,1.70
2022-08-12T08:57:43.622Z,2.00
2022-08-12T08:58:39.453Z,1.70
2022-08-12T08:59:39.437Z,1.70
2022-08-12T09:00:39.429Z,1.80
2022-08-12T09:01:39.507Z,1.90
2022-08-12T09:02:39.538Z,1.80
2022-08-12T09:05:08.205Z,1.80
2022-08-12T09:05:13.456Z,1.90
2022-08-12T09:05:43.177Z,1.70
2022-08-12T09:06:41.971Z,1.30
2022-08-12T09:07:51.683Z,1.70
2022-08-12T09:08:40.378Z,1.60
2022-08-12T09:10:02.863Z,2.10
2022-08-12T09:10:45.165Z,1.60
2022-08-12T09:12:11.587Z,1.50
2022-08-12T09:12:42.425Z,2.00
2022-08-12T09:14:11.333Z,1.70
2022-08-12T09:14:40.330Z,1.50
2022-08-12T09:15:41.546Z,1.40
2022-08-12T09:16:42.854Z,1.60
2022-08-12T09:18:41.161Z,1.40
2022-08-12T09:19:39.306Z,1.50
2022-08-12T09:20:39.300Z,1.50
2022-08-12T09:21:54.536Z,1.40
2022-08-12T09:22:40.279Z,1.60
2022-08-12T09:24:00.751Z,1.50
2022-08-12T09:24:40.299Z,1.80
2022-08-12T09:25:39.261Z,1.50
2022-08-12T09:26:46.204Z,1.70
2022-08-12T09:28:03.521Z,1.40
2022-08-12T09:28:40.244Z,1.70
2022-08-12T09:30:11.999Z,1.80
2022-08-12T09:30:41.785Z,1.70
2022-08-12T09:32:07.652Z,1.70
2022-08-12T09:33:01.539Z,1.80
2022-08-12T09:34:27.409Z,1.60
2022-08-12T09:34:42.198Z,1.50
2022-08-12T09:35:43.246Z,1.50
2022-08-12T09:36:57.761Z,1.80
2022-08-12T09:37:57.936Z,1.80
2022-08-12T09:38:40.166Z,1.40
2022-08-12T09:40:05.845Z,1.70
2022-08-12T09:41:01.590Z,1.60
2022-08-12T09:42:33.734Z,2.10
2022-08-12T09:42:49.226Z,1.50
2022-08-12T09:43:41.137Z,1.40
2022-08-12T09:44:40.214Z,1.30
2022-08-12T09:46:07.014Z,1.50
2022-08-12T09:46:40.181Z,1.50
2022-08-12T09:47:39.126Z,1.30
2022-08-12T09:48:39.928Z,1.40
2022-08-12T09:49:42.621Z,1.30
2022-08-12T09:50:40.114Z,1.20
2022-08-12T09:51:43.812Z,1.20
2022-08-12T09:52:39.098Z,1.80
2022-08-12T09:53:39.671Z,1.60
2022-08-12T09:54:42.765Z,1.40
2022-08-12T09:56:05.294Z,1.50
2022-08-12T09:56:59.404Z,1.40
2022-08-12T09:58:51.090Z,1.10
2022-08-12T09:58:57.694Z,1.30
2022-08-12T10:00:17.553Z,1.60
2022-08-12T10:00:52.184Z,1.40
2022-08-12T10:02:41.856Z,1.30
2022-08-12T10:02:53.159Z,1.20
2022-08-12T10:04:03.507Z,1.50
2022-08-12T10:04:40.348Z,1.60
2022-08-12T10:06:26.957Z,1.40
2022-08-12T10:06:54.636Z,1.30
2022-08-12T10:07:40.924Z,1.30
2022-08-12T10:08:38.950Z,1.60
2022-08-12T10:09:58.011Z,1.50
2022-08-12T10:10:42.520Z,1.50
2022-08-12T10:12:07.729Z,1.10
2022-08-12T10:12:39.947Z,1.50
2022-08-12T10:13:39.810Z,1.30
2022-08-12T10:14:39.072Z,1.50
2022-08-12T10:16:00.925Z,1.70
2022-08-12T10:16:39.888Z,1.40
2022-08-12T10:18:05.948Z,1.60
2022-08-12T10:18:52.010Z,1.50
2022-08-12T10:19:39.869Z,1.60
2022-08-12T10:20:38.862Z,1.30
2022-08-12T10:21:38.858Z,1.20
2022-08-12T10:22:41.092Z,1.40
2022-08-12T10:23:40.169Z,1.30
2022-08-12T10:24:39.831Z,1.60
2022-08-12T10:26:35.862Z,1.50
2022-08-12T10:26:39.809Z,1.00
2022-08-12T10:28:05.789Z,1.20
2022-08-12T10:28:39.870Z,1.20
2022-08-12T10:30:03.333Z,1.60
2022-08-12T10:30:44.226Z,1.30
2022-08-12T10:31:58.620Z,1.40
2022-08-12T10:33:02.438Z,1.60
2022-08-12T10:33:55.161Z,1.30
2022-08-12T10:34:39.764Z,1.40
2022-08-12T10:35:39.747Z,1.40
2022-08-12T10:36:40.278Z,1.40
2022-08-12T10:38:36.642Z,1.30
2022-08-12T10:38:41.423Z,1.20
2022-08-12T10:40:02.233Z,1.10
2022-08-12T10:40:39.767Z,1.10
2022-08-12T10:41:57.811Z,1.00
2022-08-12T10:42:39.765Z,1.10
2022-08-12T10:43:56.450Z,1.30
2022-08-12T10:44:39.696Z,1.10
2022-08-12T10:45:38.804Z,1.00
2022-08-12T10:46:38.675Z,1.10
2022-08-12T10:48:20.456Z,1.10
2022-08-12T10:48:39.679Z,1.00
2022-08-12T10:50:02.381Z,1.40
2022-08-12T10:50:58.410Z,1.00
2022-08-12T10:52:03.940Z,1.00
2022-08-12T10:52:39.626Z,1.10
2022-08-12T10:53:44.344Z,1.10
2022-08-12T10:54:39.610Z,0.80
2022-08-12T10:55:38.608Z,1.30
2022-08-12T10:56:38.602Z,1.20
2022-08-12T10:58:14.232Z,1.40
2022-08-12T10:58:39.606Z,1.00
2022-08-12T11:00:31.757Z,1.10
2022-08-12T11:00:45.541Z,1.10
2022-08-12T11:04:18.084Z,1.20
2022-08-12T11:04:23.068Z,1.10
2022-08-12T11:04:26.952Z,1.30
2022-08-12T11:04:44.832Z,1.10
2022-08-12T11:07:07.901Z,1.00
2022-08-12T11:07:07.994Z,1.10
2022-08-12T11:08:35.053Z,1.00
2022-08-12T11:08:43.669Z,1.80
2022-08-12T11:09:55.758Z,1.10
2022-08-12T11:10:39.536Z,1.20
2022-08-12T11:12:35.874Z,1.10
2022-08-12T11:12:59.331Z,1.00
2022-08-12T11:13:46.524Z,1.00
2022-08-12T11:14:50.034Z,0.90
2022-08-12T11:16:03.238Z,1.00
2022-08-12T11:16:39.457Z,1.00
2022-08-12T11:17:54.479Z,1.20
2022-08-12T11:18:39.459Z,1.60
2022-08-12T11:19:38.423Z,1.30
2022-08-12T11:20:38.414Z,1.20
2022-08-12T11:21:56.917Z,1.00
2022-08-12T11:22:39.475Z,0.90
2022-08-12T11:23:38.390Z,1.00
2022-08-12T11:24:38.417Z,1.00
2022-08-12T11:25:56.447Z,0.90
2022-08-12T11:26:39.374Z,0.90
2022-08-12T11:27:38.370Z,0.80
2022-08-12T11:28:38.858Z,1.20
2022-08-12T11:30:02.086Z,0.80
2022-08-12T11:30:39.337Z,1.30
2022-08-12T11:31:55.895Z,1.00
2022-08-12T11:32:39.595Z,1.20
2022-08-12T11:34:06.275Z,0.80
2022-08-12T11:34:52.704Z,1.00
2022-08-12T11:35:39.298Z,0.90
2022-08-12T11:36:39.303Z,0.90
2022-08-12T11:37:57.878Z,1.20
2022-08-12T11:38:39.267Z,1.00
2022-08-12T11:40:02.866Z,1.20
2022-08-12T11:40:42.492Z,1.40
2022-08-12T11:41:38.230Z,1.20
2022-08-12T11:42:45.913Z,1.30
2022-08-12T11:43:50.754Z,1.00
2022-08-12T11:44:42.968Z,1.30
2022-08-12T11:45:38.840Z,1.10
2022-08-12T11:46:38.189Z,0.90
2022-08-12T11:47:40.257Z,1.10
2022-08-12T11:48:52.448Z,1.20
2022-08-12T11:49:39.195Z,1.00
2022-08-12T11:50:40.599Z,1.20
2022-08-12T11:51:39.893Z,1.00
2022-08-12T11:53:57.032Z,0.90
2022-08-12T11:53:57.591Z,1.10
2022-08-12T11:54:39.152Z,1.20
2022-08-12T11:55:45.358Z,1.20
2022-08-12T11:56:41.958Z,1.10
2022-08-12T11:58:18.384Z,0.80
2022-08-12T12:00:55.320Z,1.10
2022-08-12T12:02:02.774Z,1.40
2022-08-12T12:02:39.157Z,1.10
2022-08-12T12:03:40.498Z,1.10
2022-08-12T12:04:39.092Z,1.10
2022-08-12T12:05:41.770Z,1.20
2022-08-12T12:06:39.041Z,1.20
2022-08-12T12:08:41.681Z,1.10
2022-08-12T12:08:42.680Z,1.20
2022-08-12T12:09:52.586Z,1.00
2022-08-12T12:10:39.021Z,1.50
2022-08-12T12:11:48.721Z,1.20
2022-08-12T12:12:41.548Z,1.20
2022-08-12T12:14:08.775Z,1.20
2022-08-12T12:14:39.238Z,1.20
2022-08-12T12:15:41.270Z,1.20
2022-08-12T12:16:39.755Z,1.10
2022-08-12T12:17:38.492Z,1.10
2022-08-12T12:18:37.962Z,0.90
2022-08-12T12:19:39.885Z,1.10
2022-08-12T12:20:38.956Z,0.90
2022-08-12T12:21:47.312Z,1.00
2022-08-12T12:22:39.034Z,0.90
2022-08-12T12:23:37.936Z,1.10
2022-08-12T12:24:37.944Z,1.00
2022-08-12T12:25:59.661Z,1.20
2022-08-12T12:26:38.904Z,1.00
2022-08-12T12:28:04.339Z,0.90
2022-08-12T12:28:39.733Z,0.90
2022-08-12T12:30:13.660Z,1.00
2022-08-12T12:30:38.879Z,0.70
2022-08-12T12:32:10.897Z,0.80
2022-08-12T12:32:38.861Z,1.10
2022-08-12T12:33:57.265Z,1.00
2022-08-12T12:34:38.874Z,0.80
2022-08-12T12:36:06.575Z,1.00
2022-08-12T12:36:38.840Z,0.90
2022-08-12T12:38:04.617Z,1.10
2022-08-12T12:38:38.818Z,0.70
2022-08-12T12:39:54.645Z,1.10
2022-08-12T12:40:39.724Z,0.70
2022-08-12T12:42:44.240Z,0.70
2022-08-12T12:42:44.332Z,1.10
2022-08-12T12:43:44.778Z,0.80
2022-08-12T12:44:42.131Z,0.90
2022-08-12T12:45:38.765Z,0.90
2022-08-12T12:46:37.755Z,0.90
2022-08-12T12:47:37.747Z,0.80
2022-08-12T12:48:39.598Z,0.70
2022-08-12T12:49:38.769Z,0.60
2022-08-12T12:50:42.270Z,0.70
2022-08-12T12:51:55.100Z,0.60
2022-08-12T12:52:38.714Z,0.70
2022-08-12T12:54:06.263Z,0.90
2022-08-12T12:54:38.721Z,0.80
2022-08-12T12:55:37.688Z,0.70
2022-08-12T12:56:37.683Z,0.70
2022-08-12T12:58:00.060Z,0.40
2022-08-12T12:58:38.669Z,0.60
2022-08-12T12:59:56.255Z,0.40
2022-08-12T13:00:38.681Z,0.50
2022-08-12T13:01:41.976Z,0.50
2022-08-12T13:02:38.637Z,0.60
2022-08-12T13:03:49.335Z,0.40
2022-08-12T13:04:38.642Z,0.30
2022-08-12T13:05:42.531Z,0.40
2022-08-12T13:06:38.604Z,0.40
2022-08-12T13:07:54.149Z,0.40
2022-08-12T13:08:38.594Z,0.50
2022-08-12T13:09:37.614Z,0.40
2022-08-12T13:10:37.586Z,0.50
2022-08-12T13:11:42.167Z,1.00
2022-08-12T13:12:38.566Z,0.40
2022-08-12T13:14:08.965Z,0.40
2022-08-12T13:14:39.630Z,0.50
2022-08-12T13:15:43.607Z,0.60
2022-08-12T13:16:43.901Z,0.50
2022-08-12T13:18:00.744Z,0.50
2022-08-12T13:18:38.522Z,0.40
2022-08-12T13:19:43.369Z,0.40
2022-08-12T13:20:43.310Z,0.50
2022-08-12T13:21:42.871Z,0.50